Time,TemperatureF,DewpointF,PressureIn,WindDirection,WindDirectionDegrees,WindSpeedMPH,WindSpeedGustMPH,Humidity,HourlyPrecipIn,Conditions,Clouds,dailyrainin,SoftwareType,DateUTC
2013-04-15 00:13:00,43.1,39.0,29.96,ESE,103,6.0,-999.0,84,-99.99,,,0.00,weatherlink.com 1.10,2013-04-15 04:13:00,
2013-04-15 00:28:00,42.9,38.0,29.96,SE,141,4.0,-999.0,84,-99.99,,,0.00,weatherlink.com 1.10,2013-04-15 04:28:00,
2013-04-15 00:43:00,42.9,39.0,29.95,ESE,103,2.0,-999.0,85,-99.99,,,0.00,weatherlink.com 1.10,2013-04-15 04:43:00,
2013-04-15 00:58:00,43.1,39.0,29.95,ENE,70,6.0,-999.0,85,-99.99,,,0.00,weatherlink.com 1.10,2013-04-15 04:58:00,
2013-04-15 01:13:00,43.0,39.0,29.95,ENE,76,7.0,-999.0,85,-99.99,,,0.00,weatherlink.com 1.10,2013-04-15 05:13:00,
2013-04-15 01:28:00,42.9,39.0,29.94,East,98,4.0,-999.0,85,-99.99,,,0.00,weatherlink.com 1.10,2013-04-15 05:28:00,
2013-04-15 01:43:00,42.7,39.0,29.94,ESE,105,2.0,-999.0,86,-99.99,,,0.00,weatherlink.com 1.10,2013-04-15 05:43:00,
2013-04-15 01:58:00,42.8,39.0,29.93,East,92,4.0,-999.0,86,-99.99,,,0.00,weatherlink.com 1.10,2013-04-15 05:58:00,
2013-04-15 02:13:00,42.7,39.0,29.94,East,101,5.0,-999.0,87,-99.99,,,0.00,weatherlink.com 1.10,2013-04-15 06:13:00,
2013-04-15 02:28:00,42.5,39.0,29.93,East,91,4.0,-999.0,87,-99.99,,,0.00,weatherlink.com 1.10,2013-04-15 06:28:00,
2013-04-15 02:43:00,42.5,39.0,29.93,ENE,78,3.0,-999.0,87,-99.99,,,0.00,weatherlink.com 1.10,2013-04-15 06:43:00,
2013-04-15 02:58:00,42.5,39.0,29.93,East,98,2.0,-999.0,88,-99.99,,,0.00,weatherlink.com 1.10,2013-04-15 06:58:00,
2013-04-15 03:43:00,42.4,39.0,29.93,East,85,1.0,-999.0,89,-99.99,,,0.00,weatherlink.com 1.10,2013-04-15 07:43:00,
2013-04-15 03:58:00,42.2,39.0,29.94,ESE,103,1.0,-999.0,89,-99.99,,,0.00,weatherlink.com 1.10,2013-04-15 07:58:00,
2013-04-15 04:13:00,41.7,39.0,29.95,East,92,0.0,-999.0,90,-99.99,,,0.00,weatherlink.com 1.10,2013-04-15 08:13:00,
2013-04-15 04:28:00,41.4,39.0,29.95,East,89,1.0,-999.0,91,-99.99,,,0.00,weatherlink.com 1.10,2013-04-15 08:28:00,
2013-04-15 04:43:00,41.3,39.0,29.95,East,101,0.0,-999.0,91,-99.99,,,0.00,weatherlink.com 1.10,2013-04-15 08:43:00,
2013-04-15 04:58:00,41.7,39.0,29.96,East,91,1.0,-999.0,91,-99.99,,,0.00,weatherlink.com 1.10,2013-04-15 08:58:00,
2013-04-15 05:13:00,41.6,39.0,29.97,East,83,0.0,-999.0,91,-99.99,,,0.00,weatherlink.com 1.10,2013-04-15 09:13:00,
2013-04-15 05:28:00,41.5,39.0,29.97,East,79,0.0,-999.0,92,-99.99,,,0.00,weatherlink.com 1.10,2013-04-15 09:28:00,
2013-04-15 05:43:00,41.3,39.0,29.97,East,82,0.0,-999.0,92,-99.99,,,0.00,weatherlink.com 1.10,2013-04-15 09:43:00,
2013-04-15 05:58:00,41.2,39.0,29.98,East,82,0.0,-999.0,92,-99.99,,,0.00,weatherlink.com 1.10,2013-04-15 09:58:00,
2013-04-15 06:13:00,40.8,39.0,29.98,East,82,0.0,-999.0,93,-99.99,,,0.00,weatherlink.com 1.10,2013-04-15 10:13:00,
2013-04-15 06:28:00,40.7,39.0,29.99,East,94,0.0,-999.0,93,-99.99,,,0.00,weatherlink.com 1.10,2013-04-15 10:28:00,
2013-04-15 06:43:00,40.6,39.0,29.98,East,86,0.0,-999.0,93,-99.99,,,0.00,weatherlink.com 1.10,2013-04-15 10:43:00,
2013-04-15 06:58:00,39.6,38.0,29.99,East,99,0.0,-999.0,93,-99.99,,,0.00,weatherlink.com 1.10,2013-04-15 10:58:00,
2013-04-15 07:13:00,-999.0,-99.9,29.99,North,-999,-999.0,-999.0,-999,-99.99,,,0.00,weatherlink.com 1.10,2013-04-15 11:13:00,
2013-04-15 07:28:00,-999.0,-99.9,29.99,North,-999,-999.0,-999.0,-999,-99.99,,,0.00,weatherlink.com 1.10,2013-04-15 11:28:00,
2013-04-15 07:43:00,43.7,42.0,29.99,ESE,103,0.0,-999.0,92,-99.99,,,0.00,weatherlink.com 1.10,2013-04-15 11:43:00,
2013-04-15 07:58:00,44.8,42.0,29.99,ESE,117,0.0,-999.0,90,-99.99,,,0.00,weatherlink.com 1.10,2013-04-15 11:58:00,
2013-04-15 08:13:00,46.2,43.0,29.99,ESE,105,0.0,-999.0,88,-99.99,,,0.00,weatherlink.com 1.10,2013-04-15 12:13:00,
2013-04-15 08:28:00,48.4,44.0,29.98,SE,127,1.0,-999.0,85,-99.99,,,0.00,weatherlink.com 1.10,2013-04-15 12:28:00,
2013-04-15 08:43:00,50.4,45.0,29.98,ENE,77,1.0,-999.0,82,-99.99,,,0.00,weatherlink.com 1.10,2013-04-15 12:43:00,
2013-04-15 08:58:00,51.8,45.0,29.98,East,84,2.0,-999.0,78,-99.99,,,0.00,weatherlink.com 1.10,2013-04-15 12:58:00,
2013-04-15 09:13:00,52.8,46.0,29.97,SSE,150,0.0,-999.0,77,-99.99,,,0.00,weatherlink.com 1.10,2013-04-15 13:13:00,
2013-04-15 09:28:00,53.6,46.0,29.97,South,177,0.0,-999.0,76,-99.99,,,0.00,weatherlink.com 1.10,2013-04-15 13:28:00,
2013-04-15 09:43:00,55.8,47.0,29.97,SSW,195,8.0,-999.0,73,-99.99,,,0.00,weatherlink.com 1.10,2013-04-15 13:43:00,
2013-04-15 09:58:00,57.0,48.0,30.00,South,181,1.0,-999.0,72,-99.99,,,0.00,weatherlink.com 1.10,2013-04-15 13:58:00,
2013-04-15 10:43:00,63.5,51.0,29.99,SSW,210,10.0,-999.0,65,-99.99,,,0.00,weatherlink.com 1.10,2013-04-15 14:43:00,
2013-04-15 10:58:00,65.5,52.0,29.99,WSW,245,8.0,-999.0,62,-99.99,,,0.00,weatherlink.com 1.10,2013-04-15 14:58:00,
2013-04-15 11:13:00,66.1,53.0,29.98,SE,136,7.0,-999.0,62,-99.99,,,0.00,weatherlink.com 1.10,2013-04-15 15:13:00,
2013-04-15 11:28:00,66.7,53.0,29.97,SSW,201,10.0,-999.0,61,-99.99,,,0.00,weatherlink.com 1.10,2013-04-15 15:28:00,
2013-04-15 11:43:00,67.3,53.0,29.98,South,176,10.0,-999.0,61,-99.99,,,0.00,weatherlink.com 1.10,2013-04-15 15:43:00,
2013-04-15 11:58:00,67.8,53.0,29.98,SSW,200,7.0,-999.0,59,-99.99,,,0.00,weatherlink.com 1.10,2013-04-15 15:58:00,
2013-04-15 12:13:00,68.1,54.0,29.98,SE,145,4.0,-999.0,60,-99.99,,,0.00,weatherlink.com 1.10,2013-04-15 16:13:00,
2013-04-15 12:28:00,68.2,53.0,29.98,South,170,8.0,-999.0,59,-99.99,,,0.00,weatherlink.com 1.10,2013-04-15 16:28:00,
2013-04-15 12:58:00,68.7,53.0,29.96,SW,221,15.0,-999.0,58,-99.99,,,0.00,weatherlink.com 1.10,2013-04-15 16:58:00,
2013-04-15 13:13:00,69.2,53.0,29.96,SSE,155,6.0,-999.0,57,-99.99,,,0.00,weatherlink.com 1.10,2013-04-15 17:13:00,
2013-04-15 13:28:00,69.5,54.0,29.95,South,171,15.0,-999.0,58,-99.99,,,0.00,weatherlink.com 1.10,2013-04-15 17:28:00,
2013-04-15 13:43:00,69.1,54.0,29.95,South,177,9.0,-999.0,58,-99.99,,,0.00,weatherlink.com 1.10,2013-04-15 17:43:00,
2013-04-15 13:58:00,69.4,54.0,29.95,WSW,252,6.0,-999.0,59,-99.99,,,0.00,weatherlink.com 1.10,2013-04-15 17:58:00,
2013-04-15 14:13:00,69.9,53.0,29.95,SSE,150,9.0,-999.0,56,-99.99,,,0.00,weatherlink.com 1.10,2013-04-15 18:13:00,
2013-04-15 14:28:00,69.7,54.0,29.95,SSW,210,6.0,-999.0,57,-99.99,,,0.00,weatherlink.com 1.10,2013-04-15 18:28:00,
2013-04-15 14:43:00,69.0,53.0,29.94,South,181,11.0,-999.0,58,-99.99,,,0.00,weatherlink.com 1.10,2013-04-15 18:43:00,
2013-04-15 14:58:00,69.6,53.0,29.94,WSW,248,10.0,-999.0,56,-99.99,,,0.00,weatherlink.com 1.10,2013-04-15 18:58:00,
2013-04-15 15:13:00,70.6,54.0,29.93,South,186,10.0,-999.0,56,-99.99,,,0.00,weatherlink.com 1.10,2013-04-15 19:13:00,
2013-04-15 15:28:00,69.1,53.0,29.93,SE,139,5.0,-999.0,57,-99.99,,,0.00,weatherlink.com 1.10,2013-04-15 19:28:00,
2013-04-15 15:43:00,69.2,53.0,29.92,SSW,203,9.0,-999.0,57,-99.99,,,0.00,weatherlink.com 1.10,2013-04-15 19:43:00,
2013-04-15 16:13:00,69.1,54.0,29.91,SSE,167,12.0,-999.0,58,-99.99,,,0.00,weatherlink.com 1.10,2013-04-15 20:13:00,
2013-04-15 16:28:00,68.9,54.0,29.91,South,186,8.0,-999.0,60,-99.99,,,0.00,weatherlink.com 1.10,2013-04-15 20:28:00,
2013-04-15 16:43:00,69.0,54.0,29.90,SSW,202,8.0,-999.0,60,-99.99,,,0.00,weatherlink.com 1.10,2013-04-15 20:43:00,
2013-04-15 16:58:00,69.3,55.0,29.89,South,186,6.0,-999.0,60,-99.99,,,0.00,weatherlink.com 1.10,2013-04-15 20:58:00,
2013-04-15 17:13:00,69.5,54.0,29.89,South,191,11.0,-999.0,59,-99.99,,,0.00,weatherlink.com 1.10,2013-04-15 21:13:00,
2013-04-15 17:28:00,69.5,54.0,29.89,South,191,8.0,-999.0,59,-99.99,,,0.00,weatherlink.com 1.10,2013-04-15 21:28:00,
2013-04-15 17:43:00,69.2,54.0,29.88,South,184,12.0,-999.0,59,-99.99,,,0.00,weatherlink.com 1.10,2013-04-15 21:43:00,
2013-04-15 17:58:00,69.4,54.0,29.89,SSW,194,10.0,-999.0,59,-99.99,,,0.00,weatherlink.com 1.10,2013-04-15 21:58:00,
2013-04-15 18:13:00,70.2,55.0,29.90,SW,218,13.0,-999.0,58,-99.99,,,0.00,weatherlink.com 1.10,2013-04-15 22:13:00,
2013-04-15 18:28:00,69.5,54.0,29.91,SSW,211,15.0,-999.0,59,-99.99,,,0.00,weatherlink.com 1.10,2013-04-15 22:28:00,
2013-04-15 18:43:00,68.6,54.0,29.91,SSW,193,5.0,-999.0,61,-99.99,,,0.00,weatherlink.com 1.10,2013-04-15 22:43:00,
2013-04-15 18:58:00,68.2,55.0,29.92,South,172,7.0,-999.0,62,-99.99,,,0.00,weatherlink.com 1.10,2013-04-15 22:58:00,
2013-04-15 19:13:00,67.9,55.0,29.91,South,173,4.0,-999.0,63,-99.99,,,0.00,weatherlink.com 1.10,2013-04-15 23:13:00,
2013-04-15 19:28:00,67.7,55.0,29.91,SSW,194,10.0,-999.0,63,-99.99,,,0.00,weatherlink.com 1.10,2013-04-15 23:28:00,
2013-04-15 19:43:00,67.4,55.0,29.91,NE,50,4.0,-999.0,64,-99.99,,,0.00,weatherlink.com 1.10,2013-04-15 23:43:00,
2013-04-15 19:58:00,67.1,55.0,29.92,SSE,157,8.0,-999.0,65,-99.99,,,0.00,weatherlink.com 1.10,2013-04-15 23:58:00,
2013-04-15 20:13:00,66.8,55.0,29.92,West,273,1.0,-999.0,65,-99.99,,,0.00,weatherlink.com 1.10,2013-04-16 00:13:00,
2013-04-15 20:28:00,66.5,55.0,29.92,South,174,4.0,-999.0,66,-99.99,,,0.00,weatherlink.com 1.10,2013-04-16 00:28:00,
2013-04-15 20:43:00,66.2,55.0,29.92,South,181,5.0,-999.0,67,-99.99,,,0.00,weatherlink.com 1.10,2013-04-16 00:43:00,
2013-04-15 20:58:00,65.5,55.0,29.93,SSW,203,4.0,-999.0,69,-99.99,,,0.00,weatherlink.com 1.10,2013-04-16 00:58:00,
2013-04-15 21:13:00,65.0,55.0,29.93,SSE,167,3.0,-999.0,70,-99.99,,,0.00,weatherlink.com 1.10,2013-04-16 01:13:00,
2013-04-15 21:28:00,64.7,55.0,29.94,SW,217,4.0,-999.0,70,-99.99,,,0.00,weatherlink.com 1.10,2013-04-16 01:28:00,
2013-04-15 21:43:00,65.1,55.0,29.95,South,176,2.0,-999.0,69,-99.99,,,0.00,weatherlink.com 1.10,2013-04-16 01:43:00,
2013-04-15 21:58:00,65.1,55.0,29.95,South,186,6.0,-999.0,69,-99.99,,,0.00,weatherlink.com 1.10,2013-04-16 01:58:00,
2013-04-15 22:13:00,65.0,55.0,29.95,SW,226,3.0,-999.0,69,-99.99,,,0.00,weatherlink.com 1.10,2013-04-16 02:13:00,
2013-04-15 22:28:00,64.7,55.0,29.95,SSW,210,4.0,-999.0,70,-99.99,,,0.00,weatherlink.com 1.10,2013-04-16 02:28:00,
2013-04-15 22:43:00,64.6,55.0,29.95,SSE,156,4.0,-999.0,70,-99.99,,,0.00,weatherlink.com 1.10,2013-04-16 02:43:00,
2013-04-15 22:58:00,64.3,55.0,29.94,SSE,164,3.0,-999.0,71,-99.99,,,0.00,weatherlink.com 1.10,2013-04-16 02:58:00,
2013-04-15 23:13:00,64.3,55.0,29.93,South,188,2.0,-999.0,71,-99.99,,,0.00,weatherlink.com 1.10,2013-04-16 03:13:00,
2013-04-15 23:28:00,64.0,54.0,29.93,South,174,7.0,-999.0,71,-99.99,,,0.00,weatherlink.com 1.10,2013-04-16 03:28:00,
2013-04-15 23:43:00,63.8,55.0,29.93,South,188,3.0,-999.0,72,-99.99,,,0.00,weatherlink.com 1.10,2013-04-16 03:43:00,
2013-04-15 23:58:00,63.4,55.0,29.93,SE,145,4.0,-999.0,73,-99.99,,,0.00,weatherlink.com 1.10,2013-04-16 03:58:00,